Time;durP1;ratioP1;P1;durP2;ratioP2;P2;SDS_P1;SDS_P2;PMS_P1;PMS_P2;Temp;Humidity;BMP_temperature;BMP_pressure;BME280_temperature;BME280_humidity;BME280_pressure;Samples;Min_cycle;Max_cycle;Signal;HPM_P1;HPM_P2
2021/05/16 00:01:16;;;;;;;1.93;1.63;;;;;;;;;;4270289;33;20295;-57
2021/05/16 00:03:42;;;;;;;2.50;1.30;;;;;;;;;;4257114;33;20228;-57
2021/05/16 00:06:08;;;;;;;5.47;1.97;;;;;;;;;;4268351;33;20385;-56
2021/05/16 00:08:34;;;;;;;2.43;1.50;;;;;;;;;;4270230;33;20609;-58
2021/05/16 00:11:00;;;;;;;3.20;1.60;;;;;;;;;;4269788;33;20306;-58
2021/05/16 00:13:26;;;;;;;4.80;2.10;;;;;;;;;;4268476;33;20354;-57
2021/05/16 00:15:52;;;;;;;3.27;1.83;;;;;;;;;;4269614;33;20310;-58
2021/05/16 00:18:18;;;;;;;5.37;2.13;;;;;;;;;;4269522;33;20939;-57
2021/05/16 00:20:43;;;;;;;2.20;1.67;;;;;;;;;;4268505;33;20596;-59
2021/05/16 00:23:09;;;;;;;3.77;2.33;;;;;;;;;;4269722;33;20192;-57
2021/05/16 00:25:35;;;;;;;2.73;1.77;;;;;;;;;;4269943;33;20316;-57
2021/05/16 00:28:01;;;;;;;3.63;1.40;;;;;;;;;;4269590;33;20250;-57
2021/05/16 00:30:27;;;;;;;3.05;1.60;;;;;;;;;;4271143;33;20717;-59
2021/05/16 00:32:55;;;;;;;3.77;1.80;;;;;;;;;;4278262;33;20286;-57
2021/05/16 00:35:23;;;;;;;3.33;1.60;;;;;;;;;;4268248;33;20235;-57
2021/05/16 00:37:49;;;;;;;4.13;1.83;;;;;;;;;;4269332;33;20655;-58
2021/05/16 00:40:16;;;;;;;4.20;2.13;;;;;;;;;;4269797;33;20705;-57
2021/05/16 00:42:42;;;;;;;2.73;2.40;;;;;;;;;;4269520;33;20284;-56
2021/05/16 00:45:19;;;;;;;5.53;3.20;;;;;;;;;;4269627;33;20220;-57
2021/05/16 00:47:47;;;;;;;3.97;2.77;;;;;;;;;;4267832;33;20239;-57
2021/05/16 00:50:14;;;;;;;5.17;2.53;;;;;;;;;;4269560;33;20323;-56
2021/05/16 00:52:41;;;;;;;3.83;2.60;;;;;;;;;;4269275;33;20205;-57
2021/05/16 00:55:08;;;;;;;6.93;2.90;;;;;;;;;;4269711;33;20251;-57
2021/05/16 00:57:34;;;;;;;7.67;3.77;;;;;;;;;;4267833;33;20286;-58
2021/05/16 01:00:00;;;;;;;5.83;3.30;;;;;;;;;;4269446;33;20874;-58
2021/05/16 01:02:25;;;;;;;5.13;3.80;;;;;;;;;;4269499;33;20192;-57
2021/05/16 01:04:51;;;;;;;5.93;3.53;;;;;;;;;;4269410;33;20283;-58
2021/05/16 01:07:17;;;;;;;5.10;2.50;;;;;;;;;;4269028;33;20235;-58
2021/05/16 01:09:43;;;;;;;5.03;2.97;;;;;;;;;;4271529;33;20224;-58
2021/05/16 01:12:09;;;;;;;6.07;2.23;;;;;;;;;;4272223;33;20243;-58
2021/05/16 01:14:39;;;;;;;4.87;2.22;;;;;;;;;;4272258;33;20613;-58
2021/05/16 01:17:05;;;;;;;6.30;2.60;;;;;;;;;;4270617;33;20334;-57
2021/05/16 01:19:32;;;;;;;6.40;2.40;;;;;;;;;;4272230;33;20311;-57
2021/05/16 01:21:58;;;;;;;4.73;2.37;;;;;;;;;;4272093;33;20208;-57
2021/05/16 01:24:26;;;;;;;7.27;2.30;;;;;;;;;;4272128;33;20220;-57
2021/05/16 01:26:53;;;;;;;7.15;2.10;;;;;;;;;;4271757;33;20213;-57
2021/05/16 01:29:19;;;;;;;7.50;2.00;;;;;;;;;;4272105;33;20236;-58
2021/05/16 01:31:45;;;;;;;5.87;3.87;;;;;;;;;;4281188;33;20219;-58
2021/05/16 01:34:11;;;;;;;5.23;2.40;;;;;;;;;;4272495;33;20240;-56
2021/05/16 01:36:37;;;;;;;3.33;2.37;;;;;;;;;;4271470;33;20250;-57
2021/05/16 01:39:07;;;;;;;4.03;2.10;;;;;;;;;;4271810;33;20232;-57
2021/05/16 01:41:33;;;;;;;4.07;2.57;;;;;;;;;;4259028;33;20725;-58
2021/05/16 01:43:59;;;;;;;5.03;3.00;;;;;;;;;;4271863;33;20248;-57
2021/05/16 01:46:25;;;;;;;2.20;1.97;;;;;;;;;;4271404;33;20227;-58
2021/05/16 01:48:51;;;;;;;4.10;2.93;;;;;;;;;;4271672;33;20212;-58
2021/05/16 01:51:18;;;;;;;7.07;2.43;;;;;;;;;;4271780;33;20611;-57
2021/05/16 01:53:45;;;;;;;4.30;2.33;;;;;;;;;;4271505;33;20365;-57
2021/05/16 01:56:20;;;;;;;4.28;2.05;;;;;;;;;;4258383;33;20436;-57
2021/05/16 01:58:46;;;;;;;2.25;2.03;;;;;;;;;;4271423;33;20612;-59
2021/05/16 02:01:12;;;;;;;5.50;2.53;;;;;;;;;;4258482;33;20669;-57
2021/05/16 02:03:39;;;;;;;7.75;2.28;;;;;;;;;;4271701;33;20212;-57
2021/05/16 02:06:05;;;;;;;10.45;2.83;;;;;;;;;;4271099;33;20276;-57
2021/05/16 02:08:30;;;;;;;2.78;2.20;;;;;;;;;;4258469;33;20245;-57
2021/05/16 02:10:56;;;;;;;2.77;1.87;;;;;;;;;;4271295;33;20783;-58
2021/05/16 02:13:22;;;;;;;2.37;2.17;;;;;;;;;;4269834;33;20307;-57
2021/05/16 02:15:47;;;;;;;3.03;1.93;;;;;;;;;;4270870;33;20733;-59
2021/05/16 02:18:17;;;;;;;4.55;2.05;;;;;;;;;;4258008;33;20342;-58
2021/05/16 02:20:44;;;;;;;6.53;2.30;;;;;;;;;;4269881;33;20213;-58
2021/05/16 02:23:10;;;;;;;2.92;2.10;;;;;;;;;;4271241;33;20605;-58
2021/05/16 02:25:35;;;;;;;4.53;2.00;;;;;;;;;;4271279;33;20303;-58
2021/05/16 02:28:02;;;;;;;6.53;2.00;;;;;;;;;;4281680;33;20760;-57
2021/05/16 02:30:28;;;;;;;2.40;2.20;;;;;;;;;;4272772;33;20558;-58
2021/05/16 02:32:53;;;;;;;3.87;2.37;;;;;;;;;;4285002;33;20543;-57
2021/05/16 02:35:19;;;;;;;3.87;2.67;;;;;;;;;;4270729;33;20213;-57
2021/05/16 02:37:44;;;;;;;7.37;3.40;;;;;;;;;;4257706;33;20232;-58
2021/05/16 02:40:10;;;;;;;4.47;2.75;;;;;;;;;;4270893;33;20224;-58
2021/05/16 02:42:36;;;;;;;3.97;3.33;;;;;;;;;;4269770;33;20232;-57
2021/05/16 02:45:03;;;;;;;5.03;3.85;;;;;;;;;;4257947;33;20596;-58
2021/05/16 02:47:29;;;;;;;5.25;3.60;;;;;;;;;;4257806;33;20248;-57
2021/05/16 02:49:54;;;;;;;7.03;3.47;;;;;;;;;;4271123;33;20493;-57
2021/05/16 02:52:20;;;;;;;4.62;3.08;;;;;;;;;;4270845;33;20193;-57
2021/05/16 02:54:47;;;;;;;4.77;3.63;;;;;;;;;;4271278;33;20228;-58
2021/05/16 02:57:12;;;;;;;8.90;3.77;;;;;;;;;;4270762;33;20196;-57
2021/05/16 02:59:38;;;;;;;5.57;4.23;;;;;;;;;;4270959;33;20250;-58
2021/05/16 03:02:04;;;;;;;4.10;3.67;;;;;;;;;;4270878;33;20302;-58
2021/05/16 03:04:29;;;;;;;6.57;3.63;;;;;;;;;;4270896;33;20295;-57
2021/05/16 03:06:56;;;;;;;9.50;3.77;;;;;;;;;;4270749;33;20237;-57
2021/05/16 03:09:22;;;;;;;7.13;4.10;;;;;;;;;;4257862;33;20729;-58
2021/05/16 03:11:47;;;;;;;5.03;4.22;;;;;;;;;;4270785;33;20223;-57
2021/05/16 03:14:13;;;;;;;4.47;3.50;;;;;;;;;;4270588;33;20221;-58
2021/05/16 03:16:39;;;;;;;6.45;4.00;;;;;;;;;;4269643;33;20274;-68
2021/05/16 03:19:05;;;;;;;4.13;3.73;;;;;;;;;;4270135;33;20410;-68
2021/05/16 03:21:31;;;;;;;4.25;3.62;;;;;;;;;;4270814;33;20692;-68
2021/05/16 03:23:56;;;;;;;4.27;3.77;;;;;;;;;;4257869;33;20243;-68
2021/05/16 03:26:23;;;;;;;6.17;3.47;;;;;;;;;;4270305;33;20290;-68
2021/05/16 03:28:49;;;;;;;5.40;3.60;;;;;;;;;;4269348;33;20291;-57
2021/05/16 03:31:15;;;;;;;4.07;3.47;;;;;;;;;;4263335;33;20266;-58
2021/05/16 03:33:40;;;;;;;4.20;3.00;;;;;;;;;;4269500;33;20291;-57
2021/05/16 03:36:06;;;;;;;4.70;3.33;;;;;;;;;;4284370;33;20309;-68
2021/05/16 03:38:32;;;;;;;5.87;3.90;;;;;;;;;;4284656;33;20654;-67
2021/05/16 03:40:57;;;;;;;5.55;4.07;;;;;;;;;;4284897;33;20263;-67
2021/05/16 03:43:23;;;;;;;5.90;3.58;;;;;;;;;;4271361;33;20832;-68
2021/05/16 03:45:49;;;;;;;4.10;3.15;;;;;;;;;;4284757;33;20271;-59
2021/05/16 03:48:15;;;;;;;4.67;3.17;;;;;;;;;;4284248;33;20672;-58
2021/05/16 03:50:41;;;;;;;4.70;3.53;;;;;;;;;;4284785;33;20358;-58
2021/05/16 03:53:07;;;;;;;6.50;4.28;;;;;;;;;;4284227;33;20231;-56
2021/05/16 03:55:32;;;;;;;6.13;4.40;;;;;;;;;;4283246;33;20341;-58
2021/05/16 03:57:58;;;;;;;4.90;3.80;;;;;;;;;;4283124;33;20576;-69
2021/05/16 04:00:24;;;;;;;5.50;4.57;;;;;;;;;;4284427;33;21053;-68
2021/05/16 04:02:50;;;;;;;6.07;4.60;;;;;;;;;;4284480;33;20222;-69
2021/05/16 04:05:16;;;;;;;7.50;5.37;;;;;;;;;;4284009;33;20220;-69
2021/05/16 04:07:43;;;;;;;5.27;4.50;;;;;;;;;;4284451;33;20345;-68
2021/05/16 04:10:10;;;;;;;6.57;5.13;;;;;;;;;;4284358;33;20231;-68
2021/05/16 04:12:36;;;;;;;7.50;5.03;;;;;;;;;;4270845;33;20220;-68
2021/05/16 04:15:03;;;;;;;7.43;5.00;;;;;;;;;;4284093;33;20354;-68
2021/05/16 04:17:29;;;;;;;7.22;4.90;;;;;;;;;;4284079;33;20216;-68
2021/05/16 04:19:54;;;;;;;7.00;4.83;;;;;;;;;;4271096;33;20243;-68
2021/05/16 04:22:19;;;;;;;10.50;6.10;;;;;;;;;;4269674;33;20236;-68
2021/05/16 04:24:45;;;;;;;6.87;6.20;;;;;;;;;;4268610;33;20383;-67
2021/05/16 04:27:11;;;;;;;7.87;6.07;;;;;;;;;;4256628;33;20824;-68
2021/05/16 04:29:36;;;;;;;5.93;5.33;;;;;;;;;;4269720;33;20692;-68
2021/05/16 04:32:02;;;;;;;7.17;5.17;;;;;;;;;;4280671;33;20294;-68
2021/05/16 04:34:28;;;;;;;6.10;5.37;;;;;;;;;;4274376;33;20250;-68
2021/05/16 04:36:53;;;;;;;6.33;5.30;;;;;;;;;;4268101;33;20292;-68
2021/05/16 04:39:19;;;;;;;6.07;5.22;;;;;;;;;;4269377;33;20310;-67
2021/05/16 04:41:44;;;;;;;12.63;6.93;;;;;;;;;;4268558;33;20258;-67
2021/05/16 04:44:10;;;;;;;6.03;5.13;;;;;;;;;;4269545;33;20208;-58
2021/05/16 04:46:36;;;;;;;5.67;5.07;;;;;;;;;;4268880;33;20231;-58
2021/05/16 04:49:02;;;;;;;8.53;4.03;;;;;;;;;;4268035;33;20308;-58
2021/05/16 04:51:28;;;;;;;9.03;5.27;;;;;;;;;;4269285;33;20571;-57
2021/05/16 04:53:53;;;;;;;5.13;4.57;;;;;;;;;;4269459;33;20298;-58
2021/05/16 04:56:19;;;;;;;5.43;4.50;;;;;;;;;;4269310;33;20279;-68
2021/05/16 04:58:45;;;;;;;7.13;5.47;;;;;;;;;;4269049;33;20354;-57
2021/05/16 05:01:11;;;;;;;5.73;4.73;;;;;;;;;;4267964;33;20828;-58
2021/05/16 05:03:37;;;;;;;5.43;4.93;;;;;;;;;;4269531;33;20235;-58
2021/05/16 05:06:03;;;;;;;8.10;4.30;;;;;;;;;;4269233;33;20394;-59
2021/05/16 05:08:30;;;;;;;6.93;5.23;;;;;;;;;;4269296;33;20292;-68
2021/05/16 05:10:56;;;;;;;9.53;5.70;;;;;;;;;;4269335;33;20189;-59
2021/05/16 05:13:22;;;;;;;10.67;5.30;;;;;;;;;;4268867;33;20359;-58
2021/05/16 05:15:47;;;;;;;11.27;5.60;;;;;;;;;;4269559;33;20346;-58
2021/05/16 05:18:17;;;;;;;9.00;5.40;;;;;;;;;;4269033;33;20224;-58
2021/05/16 05:20:43;;;;;;;7.03;6.10;;;;;;;;;;4269395;33;20326;-58
2021/05/16 05:23:08;;;;;;;6.93;5.97;;;;;;;;;;4269207;33;20594;-58
2021/05/16 05:25:34;;;;;;;10.17;6.00;;;;;;;;;;4269540;33;20407;-57
2021/05/16 05:27:59;;;;;;;12.13;5.80;;;;;;;;;;4269168;33;20328;-57
2021/05/16 05:30:26;;;;;;;6.03;5.07;;;;;;;;;;4270948;33;20299;-58
2021/05/16 05:32:52;;;;;;;10.85;6.75;;;;;;;;;;4282202;33;20325;-58
2021/05/16 05:35:18;;;;;;;6.70;6.00;;;;;;;;;;4275281;33;20282;-58
2021/05/16 05:37:44;;;;;;;8.80;6.27;;;;;;;;;;4283201;33;20289;-58
2021/05/16 05:40:11;;;;;;;7.07;6.37;;;;;;;;;;4283599;33;20220;-58
2021/05/16 05:42:36;;;;;;;9.47;6.50;;;;;;;;;;4283728;33;20414;-57
2021/05/16 05:45:04;;;;;;;8.03;5.43;;;;;;;;;;4283403;33;20212;-58
2021/05/16 05:47:30;;;;;;;6.07;5.47;;;;;;;;;;4283392;33;20263;-57
2021/05/16 05:49:55;;;;;;;8.57;5.97;;;;;;;;;;4270448;33;20236;-58
2021/05/16 05:52:28;;;;;;;7.93;5.70;;;;;;;;;;4283559;33;20650;-57
2021/05/16 05:54:54;;;;;;;7.90;5.80;;;;;;;;;;4284279;33;20244;-57
2021/05/16 05:57:19;;;;;;;6.70;6.00;;;;;;;;;;4286417;33;20230;-57
2021/05/16 05:59:45;;;;;;;9.07;6.53;;;;;;;;;;4285949;33;20296;-58
2021/05/16 06:02:10;;;;;;;8.13;6.37;;;;;;;;;;4285872;33;20610;-57
2021/05/16 06:04:36;;;;;;;9.80;5.63;;;;;;;;;;4286144;33;20436;-58
2021/05/16 06:07:02;;;;;;;10.07;6.10;;;;;;;;;;4285747;33;20203;-56
2021/05/16 06:09:27;;;;;;;7.45;6.18;;;;;;;;;;4272789;33;20228;-57
2021/05/16 06:11:54;;;;;;;10.90;5.13;;;;;;;;;;4284484;33;20224;-57
2021/05/16 06:14:19;;;;;;;6.60;5.93;;;;;;;;;;4285848;33;20250;-57
2021/05/16 06:16:45;;;;;;;10.53;6.00;;;;;;;;;;4272343;33;20228;-58
2021/05/16 06:19:11;;;;;;;10.98;5.87;;;;;;;;;;4277052;33;20272;-57
2021/05/16 06:21:36;;;;;;;7.25;5.93;;;;;;;;;;4270106;33;20228;-57
2021/05/16 06:26:29;;;;;;;7.40;5.70;;;;;;;;;;4258283;33;20200;-57
2021/05/16 06:28:54;;;;;;;5.95;5.05;;;;;;;;;;4271104;33;20225;-56
2021/05/16 06:31:21;;;;;;;9.65;5.25;;;;;;;;;;4278125;33;20267;-56
2021/05/16 06:33:46;;;;;;;6.00;5.18;;;;;;;;;;4260737;33;20398;-68
2021/05/16 06:36:12;;;;;;;7.60;4.40;;;;;;;;;;4271077;33;20290;-69
2021/05/16 06:38:37;;;;;;;6.37;5.30;;;;;;;;;;4257926;33;20243;-69
2021/05/16 06:41:03;;;;;;;6.97;4.87;;;;;;;;;;4258197;33;20354;-69
2021/05/16 06:43:28;;;;;;;6.07;4.87;;;;;;;;;;4270269;33;20225;-69
2021/05/16 06:45:53;;;;;;;4.70;4.30;;;;;;;;;;4270950;33;20342;-68
2021/05/16 06:48:19;;;;;;;5.35;4.40;;;;;;;;;;4270815;33;20193;-69
2021/05/16 06:50:44;;;;;;;11.40;5.50;;;;;;;;;;4271230;33;20571;-69
2021/05/16 06:53:10;;;;;;;4.20;3.80;;;;;;;;;;4270600;33;20211;-69
2021/05/16 06:55:35;;;;;;;7.22;4.47;;;;;;;;;;4270596;33;20354;-68
2021/05/16 06:58:01;;;;;;;5.93;5.20;;;;;;;;;;4270648;33;20366;-70
2021/05/16 07:00:27;;;;;;;12.48;5.03;;;;;;;;;;4270739;33;20295;-68
2021/05/16 07:02:52;;;;;;;5.40;4.90;;;;;;;;;;4268787;33;20306;-69
2021/05/16 07:05:18;;;;;;;8.00;4.78;;;;;;;;;;4270726;33;20224;-69
2021/05/16 07:07:43;;;;;;;5.80;4.90;;;;;;;;;;4260486;33;20342;-66
2021/05/16 07:10:09;;;;;;;8.77;5.40;;;;;;;;;;4256606;33;20324;-67
2021/05/16 07:12:35;;;;;;;6.28;4.80;;;;;;;;;;4254005;33;20580;-68
2021/05/16 07:15:00;;;;;;;6.37;4.15;;;;;;;;;;4256376;33;20646;-67
2021/05/16 07:17:26;;;;;;;6.07;4.40;;;;;;;;;;4255971;33;20233;-69
2021/05/16 07:19:52;;;;;;;8.25;4.37;;;;;;;;;;4281341;33;20290;-68
2021/05/16 07:22:17;;;;;;;5.37;4.28;;;;;;;;;;4284301;33;20220;-68
2021/05/16 07:24:43;;;;;;;14.65;4.12;;;;;;;;;;4284712;33;20259;-68
2021/05/16 07:27:09;;;;;;;9.02;4.35;;;;;;;;;;4284238;33;20192;-70
2021/05/16 07:29:34;;;;;;;5.65;4.25;;;;;;;;;;4284057;33;20224;-68
2021/05/16 07:31:59;;;;;;;4.72;4.05;;;;;;;;;;4262469;33;20299;-68
2021/05/16 07:34:25;;;;;;;7.15;4.30;;;;;;;;;;4261520;33;20265;-68
2021/05/16 07:36:50;;;;;;;4.30;3.90;;;;;;;;;;4269974;33;20754;-68
2021/05/16 07:39:16;;;;;;;9.23;4.05;;;;;;;;;;4269743;33;20228;-68
2021/05/16 07:41:42;;;;;;;4.95;4.35;;;;;;;;;;4269222;33;20752;-67
2021/05/16 07:44:08;;;;;;;8.15;3.92;;;;;;;;;;4269805;33;20228;-67
2021/05/16 07:46:34;;;;;;;12.20;4.07;;;;;;;;;;4269938;33;20197;-70
2021/05/16 07:49:00;;;;;;;6.43;3.35;;;;;;;;;;4269824;33;20655;-70
2021/05/16 07:51:26;;;;;;;3.85;3.40;;;;;;;;;;4269963;33;20272;-69
2021/05/16 07:53:51;;;;;;;5.78;3.25;;;;;;;;;;4270066;33;20284;-70
2021/05/16 07:56:17;;;;;;;9.30;3.33;;;;;;;;;;4270058;33;20395;-59
2021/05/16 07:58:42;;;;;;;9.25;3.35;;;;;;;;;;4269789;33;20284;-58
2021/05/16 08:01:08;;;;;;;6.18;3.20;;;;;;;;;;4256282;33;20318;-58
2021/05/16 08:03:34;;;;;;;4.97;2.95;;;;;;;;;;4268998;33;20275;-58
2021/05/16 08:05:59;;;;;;;4.97;3.12;;;;;;;;;;4269599;33;20691;-70
2021/05/16 08:08:25;;;;;;;6.12;3.17;;;;;;;;;;4269280;33;20459;-70
2021/05/16 08:10:50;;;;;;;8.23;3.60;;;;;;;;;;4269181;33;20367;-71
2021/05/16 08:13:16;;;;;;;6.47;2.78;;;;;;;;;;4268667;33;20607;-71
2021/05/16 08:15:42;;;;;;;5.78;2.97;;;;;;;;;;4269378;33;20291;-67
2021/05/16 08:18:09;;;;;;;4.03;2.67;;;;;;;;;;4270874;33;20216;-56
2021/05/16 08:20:35;;;;;;;5.35;2.58;;;;;;;;;;4283955;33;20208;-57
2021/05/16 08:23:01;;;;;;;6.55;2.87;;;;;;;;;;4282040;33;20242;-57
2021/05/16 08:25:27;;;;;;;3.78;3.08;;;;;;;;;;4283479;33;20425;-57
2021/05/16 08:27:53;;;;;;;10.63;2.97;;;;;;;;;;4282216;33;20732;-57
2021/05/16 08:30:19;;;;;;;14.57;4.62;;;;;;;;;;4281930;33;20254;-57
2021/05/16 08:32:45;;;;;;;10.35;4.32;;;;;;;;;;4254824;33;20221;-57
2021/05/16 08:35:11;;;;;;;10.35;3.70;;;;;;;;;;4270367;33;20232;-57
2021/05/16 08:37:37;;;;;;;4.95;3.20;;;;;;;;;;4269186;33;20724;-58
2021/05/16 08:40:05;;;;;;;7.28;3.60;;;;;;;;;;4270406;33;20213;-57
2021/05/16 08:42:32;;;;;;;5.40;3.10;;;;;;;;;;4268854;33;20646;-57
2021/05/16 08:44:57;;;;;;;6.12;3.45;;;;;;;;;;4268071;33;20260;-57
2021/05/16 08:47:23;;;;;;;10.20;3.83;;;;;;;;;;4269058;33;20200;-57
2021/05/16 08:49:49;;;;;;;6.22;3.10;;;;;;;;;;4269189;33;20236;-58
2021/05/16 08:52:15;;;;;;;7.00;4.53;;;;;;;;;;4269093;33;20274;-57
2021/05/16 08:54:41;;;;;;;15.93;4.82;;;;;;;;;;4268649;33;20359;-57
2021/05/16 08:57:06;;;;;;;11.15;4.95;;;;;;;;;;4267684;33;20590;-57
2021/05/16 08:59:32;;;;;;;11.65;4.45;;;;;;;;;;4269463;33;20347;-57
2021/05/16 09:01:58;;;;;;;12.02;4.75;;;;;;;;;;4268892;33;20196;-56
2021/05/16 09:04:37;;;;;;;12.40;3.90;;;;;;;;;;4268634;33;20217;-56
2021/05/16 09:07:04;;;;;;;9.93;3.50;;;;;;;;;;4267916;33;20234;-55
2021/05/16 09:09:30;;;;;;;5.60;3.03;;;;;;;;;;4269525;33;20363;-55
2021/05/16 09:11:58;;;;;;;7.30;3.50;;;;;;;;;;4256113;33;20225;-55
2021/05/16 09:14:44;;;;;;;7.18;4.45;;;;;;;;;;4256291;33;20240;-56
2021/05/16 09:17:21;;;;;;;8.75;4.12;;;;;;;;;;4269314;33;20668;-55
2021/05/16 09:19:50;;;;;;;5.82;3.92;;;;;;;;;;4268896;33;20212;-55
2021/05/16 09:22:34;;;;;;;6.25;4.50;;;;;;;;;;4268679;33;20213;-55
2021/05/16 09:25:24;;;;;;;10.55;5.82;;;;;;;;;;4269160;33;20292;-56
2021/05/16 09:27:54;;;;;;;9.48;4.95;;;;;;;;;;4267720;33;20311;-56
2021/05/16 09:30:20;;;;;;;9.13;5.45;;;;;;;;;;4270605;33;20726;-56
2021/05/16 09:32:47;;;;;;;5.75;4.32;;;;;;;;;;4284523;33;20486;-56
2021/05/16 09:35:13;;;;;;;8.65;4.37;;;;;;;;;;4286501;33;20295;-56
2021/05/16 09:37:58;;;;;;;8.57;3.55;;;;;;;;;;4286073;33;20271;-56
2021/05/16 09:40:28;;;;;;;11.93;3.92;;;;;;;;;;4286452;33;20665;-56
2021/05/16 09:43:11;;;;;;;7.18;3.80;;;;;;;;;;4284503;33;20262;-56
2021/05/16 09:46:06;;;;;;;6.82;2.55;;;;;;;;;;4286163;33;20204;-57
2021/05/16 09:48:42;;;;;;;6.47;2.90;;;;;;;;;;4286031;33;20298;-57
2021/05/16 09:51:14;;;;;;;5.85;3.05;;;;;;;;;;4285636;33;20196;-57
2021/05/16 09:54:02;;;;;;;8.85;3.05;;;;;;;;;;4286222;33;20298;-57
2021/05/16 09:56:29;;;;;;;10.45;3.60;;;;;;;;;;4285998;33;20239;-58
2021/05/16 09:58:58;;;;;;;5.55;3.37;;;;;;;;;;4286073;33;20247;-57
2021/05/16 10:01:25;;;;;;;7.97;3.37;;;;;;;;;;4284185;33;20780;-58
2021/05/16 10:03:51;;;;;;;8.80;3.53;;;;;;;;;;4285703;33;20221;-57
2021/05/16 10:06:18;;;;;;;8.80;3.97;;;;;;;;;;4284412;33;20334;-57
2021/05/16 10:08:48;;;;;;;5.30;2.60;;;;;;;;;;4286158;33;20642;-57
2021/05/16 10:11:16;;;;;;;5.28;2.37;;;;;;;;;;4285930;33;20283;-57
2021/05/16 10:13:48;;;;;;;4.30;2.55;;;;;;;;;;4286118;33;20366;-56
2021/05/16 10:16:16;;;;;;;3.95;1.98;;;;;;;;;;4285980;33;20193;-57
2021/05/16 10:18:44;;;;;;;10.70;4.07;;;;;;;;;;4274012;33;20323;-58
2021/05/16 10:21:10;;;;;;;2.97;2.20;;;;;;;;;;4257191;33;20295;-56
2021/05/16 10:23:37;;;;;;;7.30;2.28;;;;;;;;;;4257476;33;20667;-57
2021/05/16 10:26:15;;;;;;;4.87;2.20;;;;;;;;;;4257737;33;20197;-57
2021/05/16 10:29:07;;;;;;;5.43;2.75;;;;;;;;;;4267662;33;20228;-63
2021/05/16 10:31:51;;;;;;;4.47;2.60;;;;;;;;;;4273269;33;20596;-62
2021/05/16 10:34:32;;;;;;;4.47;2.15;;;;;;;;;;4272653;33;20304;-64
2021/05/16 10:36:59;;;;;;;3.72;2.30;;;;;;;;;;4285688;33;20208;-65
2021/05/16 10:39:43;;;;;;;6.03;3.15;;;;;;;;;;4272615;33;20770;-64
2021/05/16 10:42:22;;;;;;;8.32;2.85;;;;;;;;;;4285032;33;20302;-64
2021/05/16 10:44:58;;;;;;;4.75;2.55;;;;;;;;;;4286143;33;20665;-63
2021/05/16 10:47:42;;;;;;;10.30;3.37;;;;;;;;;;4285175;33;20695;-63
2021/05/16 10:50:07;;;;;;;7.68;3.65;;;;;;;;;;4285900;33;20304;-58
2021/05/16 10:52:33;;;;;;;6.60;2.30;;;;;;;;;;4284918;33;20271;-58
2021/05/16 10:54:59;;;;;;;12.23;3.17;;;;;;;;;;4283973;33;20232;-57
2021/05/16 10:57:35;;;;;;;4.05;2.37;;;;;;;;;;4283452;33;20220;-57
2021/05/16 11:00:21;;;;;;;3.92;2.30;;;;;;;;;;4284861;33;20257;-57
2021/05/16 11:03:06;;;;;;;5.20;2.80;;;;;;;;;;4284652;33;20203;-57
2021/05/16 11:05:46;;;;;;;2.90;2.00;;;;;;;;;;4284844;33;20279;-57
2021/05/16 11:08:32;;;;;;;6.45;1.52;;;;;;;;;;4284488;33;20795;-57
2021/05/16 11:11:00;;;;;;;2.47;0.90;;;;;;;;;;4295140;33;20258;-57
2021/05/16 11:13:29;;;;;;;1.55;1.00;;;;;;;;;;4284392;33;20224;-65
2021/05/16 11:15:57;;;;;;;1.02;0.70;;;;;;;;;;4284517;33;20205;-64
2021/05/16 11:18:23;;;;;;;1.42;0.70;;;;;;;;;;4276018;33;20276;-64
2021/05/16 11:20:59;;;;;;;1.37;0.82;;;;;;;;;;4255825;33;20252;-65
2021/05/16 11:23:29;;;;;;;1.67;0.93;;;;;;;;;;4256160;33;20327;-65
2021/05/16 11:25:59;;;;;;;0.90;0.82;;;;;;;;;;4256559;33;20221;-64
2021/05/16 11:28:26;;;;;;;2.85;0.60;;;;;;;;;;4255902;33;20758;-64
2021/05/16 11:30:53;;;;;;;1.85;1.00;;;;;;;;;;4264036;33;20664;-63
2021/05/16 11:33:29;;;;;;;1.90;0.90;;;;;;;;;;4284088;33;20274;-63
2021/05/16 11:35:56;;;;;;;5.60;1.70;;;;;;;;;;4260370;33;20228;-63
2021/05/16 11:38:29;;;;;;;3.75;1.20;;;;;;;;;;4284277;33;20334;-63
2021/05/16 11:40:55;;;;;;;1.35;0.80;;;;;;;;;;4284993;33;20207;-63
2021/05/16 11:43:32;;;;;;;0.90;0.75;;;;;;;;;;4284535;33;20203;-64
2021/05/16 11:45:59;;;;;;;2.70;0.80;;;;;;;;;;4271779;33;20233;-64
2021/05/16 11:48:37;;;;;;;0.90;0.60;;;;;;;;;;4284396;33;20322;-65
2021/05/16 11:51:07;;;;;;;6.15;1.45;;;;;;;;;;4284656;33;20311;-64
2021/05/16 11:53:33;;;;;;;1.40;0.80;;;;;;;;;;4282922;33;20220;-64
2021/05/16 11:56:02;;;;;;;6.28;1.67;;;;;;;;;;4284516;33;20275;-65
2021/05/16 11:58:28;;;;;;;3.00;1.05;;;;;;;;;;4283951;33;20565;-65
2021/05/16 12:00:54;;;;;;;1.90;0.90;;;;;;;;;;4284177;33;20263;-64
2021/05/16 12:03:19;;;;;;;3.55;0.70;;;;;;;;;;4284073;33;20215;-65
2021/05/16 12:05:46;;;;;;;5.87;0.90;;;;;;;;;;4284046;33;20291;-64
2021/05/16 12:08:18;;;;;;;7.12;1.00;;;;;;;;;;4283929;33;20739;-64
2021/05/16 12:10:45;;;;;;;0.90;0.70;;;;;;;;;;4284488;33;20218;-65
2021/05/16 12:13:21;;;;;;;3.22;0.73;;;;;;;;;;4283925;33;20271;-65
2021/05/16 12:15:47;;;;;;;1.67;1.17;;;;;;;;;;4283992;33;20519;-65
2021/05/16 12:18:21;;;;;;;3.33;1.67;;;;;;;;;;4276481;33;20283;-65
2021/05/16 12:20:58;;;;;;;4.68;0.88;;;;;;;;;;4255150;33;20239;-65
2021/05/16 12:23:23;;;;;;;3.22;0.90;;;;;;;;;;4255292;33;20244;-67
2021/05/16 12:25:49;;;;;;;2.28;0.70;;;;;;;;;;4254310;33;20312;-65
2021/05/16 12:28:15;;;;;;;0.50;0.50;;;;;;;;;;4255108;33;20615;-66
2021/05/16 12:30:41;;;;;;;0.98;0.60;;;;;;;;;;4261210;33;20372;-65
2021/05/16 12:33:07;;;;;;;1.83;0.65;;;;;;;;;;4282343;33;20291;-66
2021/05/16 12:35:32;;;;;;;1.35;0.73;;;;;;;;;;4283782;33;20271;-65
2021/05/16 12:38:10;;;;;;;1.27;0.73;;;;;;;;;;4284201;33;20207;-65
2021/05/16 12:40:35;;;;;;;1.65;1.00;;;;;;;;;;4283764;33;20226;-65
2021/05/16 12:43:03;;;;;;;1.20;0.55;;;;;;;;;;4283986;33;20668;-66
2021/05/16 12:45:30;;;;;;;3.53;1.00;;;;;;;;;;4283934;33;20212;-64
2021/05/16 12:47:55;;;;;;;1.20;0.77;;;;;;;;;;4282721;33;20429;-64
2021/05/16 12:50:29;;;;;;;5.75;0.80;;;;;;;;;;4284077;33;20551;-64
2021/05/16 12:53:14;;;;;;;3.50;0.80;;;;;;;;;;4283733;33;20687;-64
2021/05/16 12:55:40;;;;;;;7.50;0.95;;;;;;;;;;4284139;33;20267;-67
2021/05/16 12:58:21;;;;;;;1.25;0.93;;;;;;;;;;4283749;33;20204;-66
2021/05/16 13:00:55;;;;;;;2.08;0.95;;;;;;;;;;4283752;33;20318;-65
2021/05/16 13:03:32;;;;;;;1.60;0.60;;;;;;;;;;4283811;33;20652;-65
2021/05/16 13:06:02;;;;;;;2.53;0.93;;;;;;;;;;4285511;33;20695;-65
2021/05/16 13:08:39;;;;;;;2.12;0.98;;;;;;;;;;4285335;33;20299;-66
2021/05/16 13:11:10;;;;;;;3.80;0.90;;;;;;;;;;4285280;33;20204;-67
2021/05/16 13:13:37;;;;;;;1.55;0.98;;;;;;;;;;4296766;33;20362;-66
2021/05/16 13:16:08;;;;;;;5.57;1.00;;;;;;;;;;4285984;33;20267;-65
2021/05/16 13:18:50;;;;;;;4.50;1.08;;;;;;;;;;4275818;33;20237;-69
2021/05/16 13:21:15;;;;;;;2.53;1.00;;;;;;;;;;4268009;33;20299;-66
2021/05/16 13:23:42;;;;;;;2.75;0.95;;;;;;;;;;4257665;33;20761;-66
2021/05/16 13:26:08;;;;;;;0.98;0.75;;;;;;;;;;4257407;33;20204;-66
2021/05/16 13:28:36;;;;;;;2.03;1.00;;;;;;;;;;4257550;33;20554;-66
2021/05/16 13:31:04;;;;;;;4.57;1.17;;;;;;;;;;4262435;33;20275;-66
2021/05/16 13:33:37;;;;;;;3.62;1.60;;;;;;;;;;4271465;33;20286;-65
2021/05/16 13:36:06;;;;;;;5.00;2.65;;;;;;;;;;4271409;33;20288;-66
2021/05/16 13:38:33;;;;;;;6.47;2.72;;;;;;;;;;4271543;33;20256;-65
2021/05/16 13:41:00;;;;;;;8.40;4.28;;;;;;;;;;4272038;33;20231;-65
2021/05/16 13:43:26;;;;;;;7.00;3.58;;;;;;;;;;4270283;33;20227;-65
2021/05/16 13:45:51;;;;;;;5.20;3.42;;;;;;;;;;4271683;33;20330;-65
2021/05/16 13:48:17;;;;;;;11.70;5.80;;;;;;;;;;4271623;33;20623;-66
2021/05/16 13:50:43;;;;;;;10.35;4.47;;;;;;;;;;4270539;33;20307;-66
2021/05/16 13:53:09;;;;;;;10.57;3.80;;;;;;;;;;4270300;33;20220;-66
2021/05/16 13:55:34;;;;;;;6.00;1.75;;;;;;;;;;4271476;33;20674;-66
2021/05/16 13:58:02;;;;;;;11.80;5.03;;;;;;;;;;4271413;33;20683;-67
2021/05/16 14:00:30;;;;;;;2.25;1.42;;;;;;;;;;4270943;33;20224;-65
2021/05/16 14:02:56;;;;;;;4.32;1.67;;;;;;;;;;4270536;33;20224;-66
2021/05/16 14:05:22;;;;;;;3.80;2.25;;;;;;;;;;4271220;33;20315;-66
2021/05/16 14:07:47;;;;;;;5.53;1.37;;;;;;;;;;4270903;33;20650;-68
2021/05/16 14:10:13;;;;;;;5.00;1.20;;;;;;;;;;4271322;33;20224;-67
2021/05/16 14:12:39;;;;;;;1.12;1.00;;;;;;;;;;4269477;33;20640;-66
2021/05/16 14:15:05;;;;;;;2.70;1.80;;;;;;;;;;4270351;33;20276;-67
2021/05/16 14:17:30;;;;;;;8.05;5.57;;;;;;;;;;4270847;33;20193;-67
2021/05/16 14:19:56;;;;;;;7.07;5.65;;;;;;;;;;4284177;33;20283;-68
2021/05/16 14:22:21;;;;;;;7.62;3.53;;;;;;;;;;4285172;33;20302;-66
2021/05/16 14:24:47;;;;;;;4.62;2.95;;;;;;;;;;4296317;33;20266;-67
2021/05/16 14:27:13;;;;;;;8.63;2.37;;;;;;;;;;4272174;33;20257;-67
2021/05/16 14:29:38;;;;;;;5.97;2.85;;;;;;;;;;4285093;33;20255;-67
2021/05/16 14:32:04;;;;;;;4.35;2.08;;;;;;;;;;4262252;33;20300;-66
2021/05/16 14:34:30;;;;;;;6.57;2.60;;;;;;;;;;4256815;33;20244;-67
2021/05/16 14:36:56;;;;;;;2.95;1.90;;;;;;;;;;4257054;33;20233;-67
2021/05/16 14:39:22;;;;;;;2.15;1.77;;;;;;;;;;4261081;33;20306;-67
2021/05/16 14:41:47;;;;;;;4.10;2.72;;;;;;;;;;4270324;33;20285;-66
2021/05/16 14:44:13;;;;;;;3.45;2.12;;;;;;;;;;4270473;33;20236;-67
2021/05/16 14:46:39;;;;;;;4.07;2.25;;;;;;;;;;4270705;33;20555;-68